sensor_id;sensor_type;location;lat;lon;timestamp;temperature;humidity
21563;DHT22;10942;47.894;11.424;2023-05-07T00:01:43;12.80;99.90
21563;DHT22;10942;47.894;11.424;2023-05-07T00:04:09;12.80;99.90
21563;DHT22;10942;47.894;11.424;2023-05-07T00:06:35;12.80;99.90
21563;DHT22;10942;47.894;11.424;2023-05-07T00:09:01;12.80;99.90
21563;DHT22;10942;47.894;11.424;2023-05-07T00:11:27;12.80;99.90
21563;DHT22;10942;47.894;11.424;2023-05-07T00:13:53;12.80;99.90
21563;DHT22;10942;47.894;11.424;2023-05-07T00:16:19;12.90;99.90
21563;DHT22;10942;47.894;11.424;2023-05-07T00:18:45;12.80;99.90
21563;DHT22;10942;47.894;11.424;2023-05-07T00:21:11;12.80;99.90
21563;DHT22;10942;47.894;11.424;2023-05-07T00:23:37;12.80;99.90
21563;DHT22;10942;47.894;11.424;2023-05-07T00:26:03;12.70;99.90
21563;DHT22;10942;47.894;11.424;2023-05-07T00:28:29;12.80;99.90
21563;DHT22;10942;47.894;11.424;2023-05-07T00:30:55;12.70;99.90
21563;DHT22;10942;47.894;11.424;2023-05-07T00:33:20;12.70;99.90
21563;DHT22;10942;47.894;11.424;2023-05-07T00:35:47;12.80;99.90
21563;DHT22;10942;47.894;11.424;2023-05-07T00:38:13;12.80;99.90
21563;DHT22;10942;47.894;11.424;2023-05-07T00:40:39;12.80;99.90
21563;DHT22;10942;47.894;11.424;2023-05-07T00:43:05;12.60;99.90
21563;DHT22;10942;47.894;11.424;2023-05-07T00:45:31;12.60;99.90
21563;DHT22;10942;47.894;11.424;2023-05-07T00:47:59;12.70;99.90
21563;DHT22;10942;47.894;11.424;2023-05-07T00:50:28;12.60;99.90
21563;DHT22;10942;47.894;11.424;2023-05-07T00:52:55;12.50;99.90
21563;DHT22;10942;47.894;11.424;2023-05-07T00:55:21;12.60;99.90
21563;DHT22;10942;47.894;11.424;2023-05-07T00:57:47;12.60;99.90
21563;DHT22;10942;47.894;11.424;2023-05-07T01:00:15;12.60;99.90
21563;DHT22;10942;47.894;11.424;2023-05-07T01:02:42;12.50;99.90
21563;DHT22;10942;47.894;11.424;2023-05-07T01:05:10;12.50;99.90
21563;DHT22;10942;47.894;11.424;2023-05-07T01:07:37;12.50;99.90
21563;DHT22;10942;47.894;11.424;2023-05-07T01:10:05;12.50;99.90
21563;DHT22;10942;47.894;11.424;2023-05-07T01:12:31;12.40;99.90
21563;DHT22;10942;47.894;11.424;2023-05-07T01:14:58;12.40;99.90
21563;DHT22;10942;47.894;11.424;2023-05-07T01:17:24;12.40;99.90
21563;DHT22;10942;47.894;11.424;2023-05-07T01:19:50;12.40;99.90
21563;DHT22;10942;47.894;11.424;2023-05-07T01:22:34;12.40;99.90
21563;DHT22;10942;47.894;11.424;2023-05-07T05:35:34;11.50;99.90
21563;DHT22;10942;47.894;11.424;2023-05-07T05:38:03;17.40;99.90
21563;DHT22;10942;47.894;11.424;2023-05-07T05:40:29;17.40;99.90
21563;DHT22;10942;47.894;11.424;2023-05-07T05:42:55;17.90;99.90
21563;DHT22;10942;47.894;11.424;2023-05-07T05:45:21;17.50;99.90
21563;DHT22;10942;47.894;11.424;2023-05-07T05:47:47;17.40;99.90
21563;DHT22;10942;47.894;11.424;2023-05-07T05:57:35;18.70;99.90
21563;DHT22;10942;47.894;11.424;2023-05-07T06:00:02;19.50;99.90
21563;DHT22;10942;47.894;11.424;2023-05-07T06:02:31;19.70;99.90
21563;DHT22;10942;47.894;11.424;2023-05-07T06:04:57;20.20;99.90
21563;DHT22;10942;47.894;11.424;2023-05-07T06:07:23;20.70;99.90
21563;DHT22;10942;47.894;11.424;2023-05-07T06:09:49;20.70;99.90
21563;DHT22;10942;47.894;11.424;2023-05-07T06:12:15;21.10;99.90
21563;DHT22;10942;47.894;11.424;2023-05-07T06:26:56;22.10;99.90
21563;DHT22;10942;47.894;11.424;2023-05-07T06:29:25;23.10;99.90
21563;DHT22;10942;47.894;11.424;2023-05-07T06:31:54;22.60;99.90
21563;DHT22;10942;47.894;11.424;2023-05-07T06:34:21;22.40;99.90
21563;DHT22;10942;47.894;11.424;2023-05-07T06:36:47;23.40;99.90
21563;DHT22;10942;47.894;11.424;2023-05-07T06:44:30;25.10;99.90
21563;DHT22;10942;47.894;11.424;2023-05-07T06:52:05;26.40;99.90
21563;DHT22;10942;47.894;11.424;2023-05-07T06:54:31;26.60;99.90
21563;DHT22;10942;47.894;11.424;2023-05-07T06:56:57;26.60;99.90
21563;DHT22;10942;47.894;11.424;2023-05-07T06:59:25;26.20;99.90
21563;DHT22;10942;47.894;11.424;2023-05-07T07:01:51;26.00;99.90
21563;DHT22;10942;47.894;11.424;2023-05-07T07:04:17;27.20;99.90
21563;DHT22;10942;47.894;11.424;2023-05-07T07:06:46;27.10;99.90
21563;DHT22;10942;47.894;11.424;2023-05-07T07:11:40;28.50;99.90
21563;DHT22;10942;47.894;11.424;2023-05-07T07:19:03;28.90;99.90
21563;DHT22;10942;47.894;11.424;2023-05-07T07:23:55;29.70;99.90
21563;DHT22;10942;47.894;11.424;2023-05-07T07:26:21;29.60;99.90
21563;DHT22;10942;47.894;11.424;2023-05-07T07:28:47;29.60;99.90
21563;DHT22;10942;47.894;11.424;2023-05-07T07:31:17;29.30;99.90
21563;DHT22;10942;47.894;11.424;2023-05-07T07:33:43;29.50;99.90
21563;DHT22;10942;47.894;11.424;2023-05-07T07:36:09;29.70;99.90
21563;DHT22;10942;47.894;11.424;2023-05-07T07:38:35;30.00;99.90
21563;DHT22;10942;47.894;11.424;2023-05-07T07:41:01;29.90;99.90
21563;DHT22;10942;47.894;11.424;2023-05-07T07:43:28;30.10;99.90
21563;DHT22;10942;47.894;11.424;2023-05-07T07:45:54;29.40;99.90
21563;DHT22;10942;47.894;11.424;2023-05-07T07:48:20;29.70;99.90
21563;DHT22;10942;47.894;11.424;2023-05-07T07:50:49;29.90;99.90
21563;DHT22;10942;47.894;11.424;2023-05-07T07:53:17;30.50;99.90
21563;DHT22;10942;47.894;11.424;2023-05-07T07:55:43;30.90;99.90
21563;DHT22;10942;47.894;11.424;2023-05-07T07:58:12;30.10;99.90
21563;DHT22;10942;47.894;11.424;2023-05-07T08:00:37;29.50;99.90
21563;DHT22;10942;47.894;11.424;2023-05-07T08:03:03;29.80;99.90
21563;DHT22;10942;47.894;11.424;2023-05-07T08:05:34;30.10;99.90
21563;DHT22;10942;47.894;11.424;2023-05-07T08:08:01;29.80;99.90
21563;DHT22;10942;47.894;11.424;2023-05-07T08:10:31;30.20;99.90
21563;DHT22;10942;47.894;11.424;2023-05-07T08:13:03;30.20;99.90
21563;DHT22;10942;47.894;11.424;2023-05-07T08:15:30;30.50;99.90
21563;DHT22;10942;47.894;11.424;2023-05-07T08:17:56;31.10;99.90
21563;DHT22;10942;47.894;11.424;2023-05-07T08:20:24;31.50;99.90
21563;DHT22;10942;47.894;11.424;2023-05-07T08:22:50;31.90;98.20
21563;DHT22;10942;47.894;11.424;2023-05-07T08:25:16;31.90;98.70
21563;DHT22;10942;47.894;11.424;2023-05-07T08:27:42;31.80;98.70
21563;DHT22;10942;47.894;11.424;2023-05-07T08:30:08;31.90;99.30
21563;DHT22;10942;47.894;11.424;2023-05-07T08:32:35;31.30;97.30
21563;DHT22;10942;47.894;11.424;2023-05-07T08:35:00;31.10;97.30
21563;DHT22;10942;47.894;11.424;2023-05-07T08:37:26;31.10;97.30
21563;DHT22;10942;47.894;11.424;2023-05-07T08:39:52;31.10;98.30
21563;DHT22;10942;47.894;11.424;2023-05-07T08:42:23;31.00;97.60
21563;DHT22;10942;47.894;11.424;2023-05-07T08:44:51;30.90;98.80
21563;DHT22;10942;47.894;11.424;2023-05-07T08:47:19;31.10;98.80
21563;DHT22;10942;47.894;11.424;2023-05-07T08:49:46;30.50;96.60
21563;DHT22;10942;47.894;11.424;2023-05-07T08:52:13;31.10;96.90
21563;DHT22;10942;47.894;11.424;2023-05-07T08:54:39;30.60;96.60
21563;DHT22;10942;47.894;11.424;2023-05-07T08:57:06;30.30;96.90
21563;DHT22;10942;47.894;11.424;2023-05-07T08:59:34;30.00;96.30
21563;DHT22;10942;47.894;11.424;2023-05-07T09:02:00;28.70;98.30
21563;DHT22;10942;47.894;11.424;2023-05-07T09:04:27;29.30;97.80
21563;DHT22;10942;47.894;11.424;2023-05-07T09:06:53;29.60;98.10
21563;DHT22;10942;47.894;11.424;2023-05-07T09:09:21;29.10;97.40
21563;DHT22;10942;47.894;11.424;2023-05-07T09:11:56;29.00;98.30
21563;DHT22;10942;47.894;11.424;2023-05-07T09:14:25;29.10;99.00
21563;DHT22;10942;47.894;11.424;2023-05-07T09:16:52;29.30;98.30
21563;DHT22;10942;47.894;11.424;2023-05-07T09:19:25;29.00;97.50
21563;DHT22;10942;47.894;11.424;2023-05-07T09:22:03;28.20;99.90
21563;DHT22;10942;47.894;11.424;2023-05-07T09:24:38;27.20;98.40
21563;DHT22;10942;47.894;11.424;2023-05-07T09:27:06;26.00;99.20
21563;DHT22;10942;47.894;11.424;2023-05-07T09:29:33;25.70;99.90
21563;DHT22;10942;47.894;11.424;2023-05-07T09:32:06;25.70;99.90
21563;DHT22;10942;47.894;11.424;2023-05-07T09:34:33;25.10;99.90
21563;DHT22;10942;47.894;11.424;2023-05-07T09:37:04;24.80;99.90
21563;DHT22;10942;47.894;11.424;2023-05-07T09:39:43;25.00;99.90
21563;DHT22;10942;47.894;11.424;2023-05-07T09:42:10;24.80;99.90
21563;DHT22;10942;47.894;11.424;2023-05-07T09:44:38;24.60;99.90
21563;DHT22;10942;47.894;11.424;2023-05-07T09:47:08;24.60;99.90
21563;DHT22;10942;47.894;11.424;2023-05-07T09:49:40;24.80;99.90
21563;DHT22;10942;47.894;11.424;2023-05-07T09:52:13;24.70;99.90
21563;DHT22;10942;47.894;11.424;2023-05-07T09:54:45;24.60;99.90
21563;DHT22;10942;47.894;11.424;2023-05-07T09:57:15;24.50;99.90
21563;DHT22;10942;47.894;11.424;2023-05-07T09:59:46;24.30;99.90
21563;DHT22;10942;47.894;11.424;2023-05-07T10:02:15;24.30;99.90
21563;DHT22;10942;47.894;11.424;2023-05-07T10:04:50;24.00;99.90
21563;DHT22;10942;47.894;11.424;2023-05-07T10:07:21;23.60;99.90
21563;DHT22;10942;47.894;11.424;2023-05-07T10:09:49;23.30;99.90
21563;DHT22;10942;47.894;11.424;2023-05-07T10:12:31;22.90;99.90
21563;DHT22;10942;47.894;11.424;2023-05-07T10:15:08;22.90;99.90
21563;DHT22;10942;47.894;11.424;2023-05-07T10:17:36;22.70;99.90
21563;DHT22;10942;47.894;11.424;2023-05-07T10:20:03;22.60;99.90
21563;DHT22;10942;47.894;11.424;2023-05-07T10:22:35;22.80;99.90
21563;DHT22;10942;47.894;11.424;2023-05-07T10:25:13;22.80;99.90
21563;DHT22;10942;47.894;11.424;2023-05-07T10:27:40;23.00;99.90
21563;DHT22;10942;47.894;11.424;2023-05-07T10:32:54;22.70;99.90
21563;DHT22;10942;47.894;11.424;2023-05-07T10:35:31;22.80;99.90
21563;DHT22;10942;47.894;11.424;2023-05-07T10:38:00;22.80;99.90
21563;DHT22;10942;47.894;11.424;2023-05-07T10:40:30;22.90;99.90
21563;DHT22;10942;47.894;11.424;2023-05-07T10:43:01;22.90;99.90
21563;DHT22;10942;47.894;11.424;2023-05-07T10:45:32;22.70;99.90
21563;DHT22;10942;47.894;11.424;2023-05-07T10:48:10;22.50;99.90
21563;DHT22;10942;47.894;11.424;2023-05-07T10:50:37;22.50;99.90
21563;DHT22;10942;47.894;11.424;2023-05-07T10:58:26;22.90;99.90
21563;DHT22;10942;47.894;11.424;2023-05-07T11:01:54;23.00;99.90
21563;DHT22;10942;47.894;11.424;2023-05-07T11:04:30;22.80;99.90
21563;DHT22;10942;47.894;11.424;2023-05-07T11:15:09;22.70;99.90
21563;DHT22;10942;47.894;11.424;2023-05-07T11:17:54;22.70;99.90
21563;DHT22;10942;47.894;11.424;2023-05-07T11:20:43;22.70;99.90
21563;DHT22;10942;47.894;11.424;2023-05-07T11:26:11;22.40;99.90
21563;DHT22;10942;47.894;11.424;2023-05-07T11:28:39;22.50;99.90
21563;DHT22;10942;47.894;11.424;2023-05-07T11:31:06;22.50;99.90
21563;DHT22;10942;47.894;11.424;2023-05-07T11:33:32;22.60;99.90
21563;DHT22;10942;47.894;11.424;2023-05-07T11:36:05;22.50;99.90
21563;DHT22;10942;47.894;11.424;2023-05-07T11:38:36;22.50;99.90
21563;DHT22;10942;47.894;11.424;2023-05-07T11:41:03;22.60;99.90
21563;DHT22;10942;47.894;11.424;2023-05-07T11:43:34;22.40;99.90
21563;DHT22;10942;47.894;11.424;2023-05-07T11:46:12;22.40;99.90
21563;DHT22;10942;47.894;11.424;2023-05-07T11:48:39;22.70;99.90
21563;DHT22;10942;47.894;11.424;2023-05-07T11:51:07;22.70;99.90
21563;DHT22;10942;47.894;11.424;2023-05-07T11:53:43;22.60;99.90
21563;DHT22;10942;47.894;11.424;2023-05-07T11:56:11;22.80;99.90
21563;DHT22;10942;47.894;11.424;2023-05-07T11:58:37;22.90;99.90
21563;DHT22;10942;47.894;11.424;2023-05-07T12:01:03;23.00;99.90
21563;DHT22;10942;47.894;11.424;2023-05-07T12:03:29;23.00;99.90
21563;DHT22;10942;47.894;11.424;2023-05-07T12:05:55;22.90;99.90
21563;DHT22;10942;47.894;11.424;2023-05-07T12:08:21;22.80;99.90
21563;DHT22;10942;47.894;11.424;2023-05-07T12:10:49;22.90;99.90
21563;DHT22;10942;47.894;11.424;2023-05-07T12:13:23;22.90;99.90
21563;DHT22;10942;47.894;11.424;2023-05-07T12:15:55;22.80;99.90
21563;DHT22;10942;47.894;11.424;2023-05-07T12:18:22;22.90;99.90
21563;DHT22;10942;47.894;11.424;2023-05-07T12:20:48;22.70;99.90
21563;DHT22;10942;47.894;11.424;2023-05-07T12:23:15;22.50;99.90
21563;DHT22;10942;47.894;11.424;2023-05-07T12:25:42;22.40;99.90
21563;DHT22;10942;47.894;11.424;2023-05-07T12:28:18;22.60;99.90
21563;DHT22;10942;47.894;11.424;2023-05-07T12:30:45;22.70;99.90
21563;DHT22;10942;47.894;11.424;2023-05-07T12:33:12;22.80;99.90
21563;DHT22;10942;47.894;11.424;2023-05-07T12:35:42;22.90;99.90
21563;DHT22;10942;47.894;11.424;2023-05-07T12:38:17;23.10;99.90
21563;DHT22;10942;47.894;11.424;2023-05-07T12:40:46;23.20;99.90
21563;DHT22;10942;47.894;11.424;2023-05-07T12:43:28;23.20;99.90
21563;DHT22;10942;47.894;11.424;2023-05-07T12:45:57;23.00;99.90
21563;DHT22;10942;47.894;11.424;2023-05-07T12:48:23;23.00;99.90
21563;DHT22;10942;47.894;11.424;2023-05-07T12:50:50;22.70;99.90
21563;DHT22;10942;47.894;11.424;2023-05-07T12:53:16;22.50;99.90
21563;DHT22;10942;47.894;11.424;2023-05-07T12:55:45;22.40;99.90
21563;DHT22;10942;47.894;11.424;2023-05-07T12:58:17;22.60;99.90
21563;DHT22;10942;47.894;11.424;2023-05-07T13:00:43;22.40;99.90
21563;DHT22;10942;47.894;11.424;2023-05-07T13:03:09;22.30;99.90
21563;DHT22;10942;47.894;11.424;2023-05-07T13:05:35;22.40;99.90
21563;DHT22;10942;47.894;11.424;2023-05-07T13:08:01;22.40;99.90
21563;DHT22;10942;47.894;11.424;2023-05-07T13:10:27;22.40;99.90
21563;DHT22;10942;47.894;11.424;2023-05-07T13:12:53;22.30;99.90
21563;DHT22;10942;47.894;11.424;2023-05-07T13:15:19;22.10;99.90
21563;DHT22;10942;47.894;11.424;2023-05-07T13:17:45;22.10;99.90
21563;DHT22;10942;47.894;11.424;2023-05-07T13:20:11;22.10;99.90
21563;DHT22;10942;47.894;11.424;2023-05-07T13:22:38;22.20;99.90
21563;DHT22;10942;47.894;11.424;2023-05-07T13:25:05;22.20;99.90
21563;DHT22;10942;47.894;11.424;2023-05-07T13:27:31;22.10;99.90
21563;DHT22;10942;47.894;11.424;2023-05-07T13:29:57;21.90;99.90
21563;DHT22;10942;47.894;11.424;2023-05-07T13:32:23;22.00;99.90
21563;DHT22;10942;47.894;11.424;2023-05-07T13:34:48;22.10;99.90
21563;DHT22;10942;47.894;11.424;2023-05-07T13:37:14;21.90;99.90
21563;DHT22;10942;47.894;11.424;2023-05-07T13:39:40;21.90;99.90
21563;DHT22;10942;47.894;11.424;2023-05-07T13:42:07;21.90;99.90
21563;DHT22;10942;47.894;11.424;2023-05-07T13:44:33;21.80;99.90
21563;DHT22;10942;47.894;11.424;2023-05-07T13:46:58;21.80;99.90
21563;DHT22;10942;47.894;11.424;2023-05-07T13:49:24;21.70;99.90
21563;DHT22;10942;47.894;11.424;2023-05-07T13:51:50;21.70;99.90
21563;DHT22;10942;47.894;11.424;2023-05-07T13:54:16;21.70;99.90
21563;DHT22;10942;47.894;11.424;2023-05-07T13:56:41;21.70;99.90
21563;DHT22;10942;47.894;11.424;2023-05-07T13:59:07;21.40;99.90
21563;DHT22;10942;47.894;11.424;2023-05-07T14:01:33;21.30;99.90
21563;DHT22;10942;47.894;11.424;2023-05-07T14:03:59;21.30;99.90
21563;DHT22;10942;47.894;11.424;2023-05-07T14:06:25;21.20;99.90
21563;DHT22;10942;47.894;11.424;2023-05-07T14:08:51;21.10;99.90
21563;DHT22;10942;47.894;11.424;2023-05-07T14:11:16;21.20;99.90
21563;DHT22;10942;47.894;11.424;2023-05-07T14:13:42;21.20;99.90
21563;DHT22;10942;47.894;11.424;2023-05-07T14:16:08;21.30;99.90
21563;DHT22;10942;47.894;11.424;2023-05-07T14:18:34;21.30;99.90
21563;DHT22;10942;47.894;11.424;2023-05-07T14:21:00;21.20;99.90
21563;DHT22;10942;47.894;11.424;2023-05-07T14:23:26;21.10;99.90
21563;DHT22;10942;47.894;11.424;2023-05-07T14:25:53;21.00;99.90
21563;DHT22;10942;47.894;11.424;2023-05-07T14:28:19;21.00;99.90
21563;DHT22;10942;47.894;11.424;2023-05-07T14:30:45;20.90;99.90
21563;DHT22;10942;47.894;11.424;2023-05-07T14:33:10;20.90;99.90
21563;DHT22;10942;47.894;11.424;2023-05-07T14:35:36;20.90;99.90
21563;DHT22;10942;47.894;11.424;2023-05-07T14:38:02;20.70;99.90
21563;DHT22;10942;47.894;11.424;2023-05-07T14:40:28;20.70;99.90
21563;DHT22;10942;47.894;11.424;2023-05-07T14:42:53;20.60;99.90
21563;DHT22;10942;47.894;11.424;2023-05-07T14:45:20;20.40;99.90
21563;DHT22;10942;47.894;11.424;2023-05-07T14:50:12;20.20;99.90
21563;DHT22;10942;47.894;11.424;2023-05-07T14:52:38;20.30;99.90
21563;DHT22;10942;47.894;11.424;2023-05-07T14:55:04;20.20;99.90
21563;DHT22;10942;47.894;11.424;2023-05-07T14:57:30;20.30;99.90
21563;DHT22;10942;47.894;11.424;2023-05-07T15:00:03;20.30;99.90
21563;DHT22;10942;47.894;11.424;2023-05-07T15:02:30;20.20;99.90
21563;DHT22;10942;47.894;11.424;2023-05-07T15:04:56;20.30;99.90
21563;DHT22;10942;47.894;11.424;2023-05-07T15:07:22;20.20;99.90
21563;DHT22;10942;47.894;11.424;2023-05-07T15:09:47;20.30;99.90
21563;DHT22;10942;47.894;11.424;2023-05-07T15:12:13;20.20;99.90
21563;DHT22;10942;47.894;11.424;2023-05-07T15:17:05;20.20;99.90
21563;DHT22;10942;47.894;11.424;2023-05-07T15:19:31;19.10;99.90
21563;DHT22;10942;47.894;11.424;2023-05-07T15:21:57;19.10;99.90
21563;DHT22;10942;47.894;11.424;2023-05-07T15:24:25;18.90;99.90
21563;DHT22;10942;47.894;11.424;2023-05-07T15:26:53;18.90;99.90
21563;DHT22;10942;47.894;11.424;2023-05-07T15:29:19;19.00;99.90
21563;DHT22;10942;47.894;11.424;2023-05-07T15:31:45;18.80;99.90
21563;DHT22;10942;47.894;11.424;2023-05-07T15:34:11;18.80;99.90
21563;DHT22;10942;47.894;11.424;2023-05-07T15:36:37;18.80;99.90
21563;DHT22;10942;47.894;11.424;2023-05-07T15:39:03;18.80;99.90
21563;DHT22;10942;47.894;11.424;2023-05-07T15:41:29;18.80;99.90
21563;DHT22;10942;47.894;11.424;2023-05-07T15:43:55;18.90;99.90
21563;DHT22;10942;47.894;11.424;2023-05-07T15:46:22;19.00;99.90
21563;DHT22;10942;47.894;11.424;2023-05-07T15:48:52;18.90;99.90
21563;DHT22;10942;47.894;11.424;2023-05-07T15:51:18;18.80;99.90
21563;DHT22;10942;47.894;11.424;2023-05-07T15:53:45;18.70;99.90
21563;DHT22;10942;47.894;11.424;2023-05-07T15:56:11;18.80;99.90
21563;DHT22;10942;47.894;11.424;2023-05-07T15:58:36;18.70;99.90
21563;DHT22;10942;47.894;11.424;2023-05-07T16:01:03;18.60;99.90
21563;DHT22;10942;47.894;11.424;2023-05-07T16:03:29;18.60;99.90
21563;DHT22;10942;47.894;11.424;2023-05-07T16:05:55;18.70;99.90
21563;DHT22;10942;47.894;11.424;2023-05-07T16:08:23;18.90;99.90
21563;DHT22;10942;47.894;11.424;2023-05-07T16:10:48;18.70;99.90
21563;DHT22;10942;47.894;11.424;2023-05-07T16:13:14;18.80;99.90
21563;DHT22;10942;47.894;11.424;2023-05-07T16:15:44;18.80;99.90
21563;DHT22;10942;47.894;11.424;2023-05-07T16:18:10;18.90;99.90
21563;DHT22;10942;47.894;11.424;2023-05-07T16:20:36;18.90;99.90
21563;DHT22;10942;47.894;11.424;2023-05-07T16:23:02;18.90;99.90
21563;DHT22;10942;47.894;11.424;2023-05-07T16:25:28;19.00;99.90
21563;DHT22;10942;47.894;11.424;2023-05-07T16:27:54;19.10;99.90
21563;DHT22;10942;47.894;11.424;2023-05-07T16:30:20;19.10;99.90
21563;DHT22;10942;47.894;11.424;2023-05-07T16:32:46;19.10;99.90
21563;DHT22;10942;47.894;11.424;2023-05-07T16:35:12;19.20;99.90
21563;DHT22;10942;47.894;11.424;2023-05-07T16:37:41;19.10;99.90
21563;DHT22;10942;47.894;11.424;2023-05-07T16:40:07;18.90;99.90
21563;DHT22;10942;47.894;11.424;2023-05-07T16:42:36;18.80;99.90
21563;DHT22;10942;47.894;11.424;2023-05-07T16:45:02;18.90;99.90
21563;DHT22;10942;47.894;11.424;2023-05-07T16:47:29;18.90;99.90
21563;DHT22;10942;47.894;11.424;2023-05-07T16:49:55;18.90;99.90
21563;DHT22;10942;47.894;11.424;2023-05-07T16:52:21;18.90;99.90
21563;DHT22;10942;47.894;11.424;2023-05-07T16:54:46;18.90;99.90
21563;DHT22;10942;47.894;11.424;2023-05-07T16:57:12;18.90;99.90
21563;DHT22;10942;47.894;11.424;2023-05-07T16:59:38;18.90;99.90
21563;DHT22;10942;47.894;11.424;2023-05-07T17:02:04;19.00;99.90
21563;DHT22;10942;47.894;11.424;2023-05-07T17:04:29;18.90;99.90
21563;DHT22;10942;47.894;11.424;2023-05-07T17:06:57;18.80;99.90
21563;DHT22;10942;47.894;11.424;2023-05-07T17:09:23;18.80;99.90
21563;DHT22;10942;47.894;11.424;2023-05-07T17:11:49;18.90;99.90
21563;DHT22;10942;47.894;11.424;2023-05-07T17:14:15;19.00;99.90
21563;DHT22;10942;47.894;11.424;2023-05-07T17:16:40;19.00;99.90
21563;DHT22;10942;47.894;11.424;2023-05-07T17:19:06;19.10;99.90
21563;DHT22;10942;47.894;11.424;2023-05-07T17:21:32;19.10;99.90
21563;DHT22;10942;47.894;11.424;2023-05-07T17:23:58;19.40;99.90
21563;DHT22;10942;47.894;11.424;2023-05-07T17:26:24;19.10;99.90
21563;DHT22;10942;47.894;11.424;2023-05-07T17:28:49;19.10;99.90
21563;DHT22;10942;47.894;11.424;2023-05-07T17:31:15;19.00;99.90
21563;DHT22;10942;47.894;11.424;2023-05-07T17:33:41;19.10;99.90
21563;DHT22;10942;47.894;11.424;2023-05-07T17:36:07;19.10;99.90
21563;DHT22;10942;47.894;11.424;2023-05-07T17:38:33;19.10;99.90
21563;DHT22;10942;47.894;11.424;2023-05-07T17:41:00;19.10;99.90
21563;DHT22;10942;47.894;11.424;2023-05-07T17:43:26;19.10;99.90
21563;DHT22;10942;47.894;11.424;2023-05-07T17:45:52;19.10;99.90
21563;DHT22;10942;47.894;11.424;2023-05-07T17:48:18;19.10;99.90
21563;DHT22;10942;47.894;11.424;2023-05-07T17:50:44;19.00;99.90
21563;DHT22;10942;47.894;11.424;2023-05-07T17:53:10;19.00;99.90
21563;DHT22;10942;47.894;11.424;2023-05-07T17:55:40;19.00;99.90
21563;DHT22;10942;47.894;11.424;2023-05-07T17:58:07;19.00;99.90
21563;DHT22;10942;47.894;11.424;2023-05-07T18:00:34;19.00;99.90
21563;DHT22;10942;47.894;11.424;2023-05-07T18:03:01;18.90;99.90
21563;DHT22;10942;47.894;11.424;2023-05-07T18:05:27;18.90;99.90
21563;DHT22;10942;47.894;11.424;2023-05-07T18:07:53;18.90;99.90
21563;DHT22;10942;47.894;11.424;2023-05-07T18:10:19;18.90;99.90
21563;DHT22;10942;47.894;11.424;2023-05-07T18:12:45;18.90;99.90
21563;DHT22;10942;47.894;11.424;2023-05-07T18:15:11;18.80;99.90
21563;DHT22;10942;47.894;11.424;2023-05-07T18:17:37;18.80;99.90
21563;DHT22;10942;47.894;11.424;2023-05-07T18:20:06;18.80;99.90
21563;DHT22;10942;47.894;11.424;2023-05-07T18:22:36;18.70;99.90
21563;DHT22;10942;47.894;11.424;2023-05-07T18:25:03;18.60;99.90
21563;DHT22;10942;47.894;11.424;2023-05-07T18:27:29;18.40;99.90
21563;DHT22;10942;47.894;11.424;2023-05-07T18:29:55;18.40;99.90
21563;DHT22;10942;47.894;11.424;2023-05-07T18:32:21;18.40;99.90
21563;DHT22;10942;47.894;11.424;2023-05-07T18:34:47;18.40;99.90
21563;DHT22;10942;47.894;11.424;2023-05-07T18:37:13;18.30;99.90
21563;DHT22;10942;47.894;11.424;2023-05-07T18:39:39;18.40;99.90
21563;DHT22;10942;47.894;11.424;2023-05-07T18:42:05;18.30;99.90
21563;DHT22;10942;47.894;11.424;2023-05-07T18:44:32;18.20;99.90
21563;DHT22;10942;47.894;11.424;2023-05-07T18:47:02;18.20;99.90
21563;DHT22;10942;47.894;11.424;2023-05-07T18:51:54;18.00;99.90
21563;DHT22;10942;47.894;11.424;2023-05-07T18:54:19;18.10;99.90
21563;DHT22;10942;47.894;11.424;2023-05-07T18:59:11;17.80;99.90
21563;DHT22;10942;47.894;11.424;2023-05-07T19:01:37;17.70;99.90
21563;DHT22;10942;47.894;11.424;2023-05-07T19:04:02;17.70;99.90
21563;DHT22;10942;47.894;11.424;2023-05-07T19:06:28;17.80;99.90
21563;DHT22;10942;47.894;11.424;2023-05-07T19:08:54;17.70;99.90
21563;DHT22;10942;47.894;11.424;2023-05-07T19:11:21;17.80;99.90
21563;DHT22;10942;47.894;11.424;2023-05-07T19:13:47;17.80;99.90
21563;DHT22;10942;47.894;11.424;2023-05-07T19:16:12;17.70;99.90
21563;DHT22;10942;47.894;11.424;2023-05-07T19:18:39;17.70;99.90
21563;DHT22;10942;47.894;11.424;2023-05-07T19:21:05;17.70;99.90
21563;DHT22;10942;47.894;11.424;2023-05-07T19:23:31;17.60;99.90
21563;DHT22;10942;47.894;11.424;2023-05-07T19:25:57;17.60;99.90
21563;DHT22;10942;47.894;11.424;2023-05-07T19:30:51;17.50;99.90
21563;DHT22;10942;47.894;11.424;2023-05-07T19:33:17;17.50;99.90
21563;DHT22;10942;47.894;11.424;2023-05-07T19:35:43;17.50;99.90
21563;DHT22;10942;47.894;11.424;2023-05-07T19:38:10;17.50;99.90
21563;DHT22;10942;47.894;11.424;2023-05-07T19:40:35;17.50;99.90
21563;DHT22;10942;47.894;11.424;2023-05-07T19:43:01;17.50;99.90
21563;DHT22;10942;47.894;11.424;2023-05-07T19:45:27;17.50;99.90
21563;DHT22;10942;47.894;11.424;2023-05-07T19:47:53;17.50;99.90
21563;DHT22;10942;47.894;11.424;2023-05-07T19:50:19;17.40;99.90
21563;DHT22;10942;47.894;11.424;2023-05-07T19:52:44;17.40;99.90
21563;DHT22;10942;47.894;11.424;2023-05-07T19:55:11;17.40;99.90
21563;DHT22;10942;47.894;11.424;2023-05-07T19:57:37;17.40;99.90
21563;DHT22;10942;47.894;11.424;2023-05-07T20:00:04;17.40;99.90
21563;DHT22;10942;47.894;11.424;2023-05-07T20:02:38;17.40;99.90
21563;DHT22;10942;47.894;11.424;2023-05-07T20:05:04;17.30;99.90
21563;DHT22;10942;47.894;11.424;2023-05-07T20:07:30;17.30;99.90
21563;DHT22;10942;47.894;11.424;2023-05-07T20:09:55;17.20;99.90
21563;DHT22;10942;47.894;11.424;2023-05-07T20:12:21;17.10;99.90
21563;DHT22;10942;47.894;11.424;2023-05-07T20:14:47;17.00;99.90
21563;DHT22;10942;47.894;11.424;2023-05-07T20:19:38;17.10;99.90
21563;DHT22;10942;47.894;11.424;2023-05-07T20:24:35;17.20;99.90
21563;DHT22;10942;47.894;11.424;2023-05-07T20:27:01;17.20;99.90
21563;DHT22;10942;47.894;11.424;2023-05-07T20:29:33;17.10;99.90
21563;DHT22;10942;47.894;11.424;2023-05-07T20:31:59;17.00;99.90
21563;DHT22;10942;47.894;11.424;2023-05-07T20:34:25;17.00;99.90
21563;DHT22;10942;47.894;11.424;2023-05-07T20:36:51;17.00;99.90
21563;DHT22;10942;47.894;11.424;2023-05-07T20:39:16;17.00;99.90
21563;DHT22;10942;47.894;11.424;2023-05-07T20:44:12;16.80;99.90
21563;DHT22;10942;47.894;11.424;2023-05-07T20:46:37;16.80;99.90